METAR AND TAF INFORMATION
METAR FOR YGTE
ADDS - METARS form results

(0046 UTC 24 May 2019)
Data provider http://aviationweather.gov/metar/data/
 
METAR text: YGTE 240000Z AUTO 16005KT 140V200 9999 // SCT025 BKN037 BKN057 28/23 Q1015
Conditions at: YGTE (GROOTE EYLANDT , AU) observed 0000 UTC 24 May 2019
Temperature: 28.0°C (82°F)
Dewpoint: 23.0°C (73°F) [RH = 74%]
Pressure (altimeter): 29.97 inches Hg (1015.0 mb)
Winds: from the SSE (160 degrees) at 6 MPH (5 knots; 2.6 m/s)
Visibility: 6 or more miles (10+ km)
Ceiling: 3700 feet AGL
Clouds: scattered clouds at 2500 feet AGL
broken clouds at 3700 feet AGL
broken clouds at 5700 feet AGL
Weather: no significant weather observed at this time

 AIRPORT MAP

 RUNWAY INFORMATION
Runway 10 Runway length 6237 ft Runway width 98 ft
Runway elevation 30 ft Runway displaced threshold 0 ft Runway heading 100
Runway 28 Runway length 6237 ft Runway width 98 ft
Runway elevation 51 ft Runway displaced threshold 0 ft Runway heading 280

 AIRPORT FREQUENCIES
Type CTAF Name CTAF Frequency 126 MHZ
Type FSS Name BRISBANE C Frequency 122.2 MHZ

 AIRPORT NEAR NAVIGATION AIDS
Type NDB-DME Name Groote Eylandt Frequency 407 KHZ



Powered by Virtual Airlines Manager [v2.6.2]